sensor_id;sensor_type;location;lat;lon;timestamp;temperature;humidity
35746;DHT22;21870;42.812;74.628;2022-11-14T00:00:29;5.10;99.90
35746;DHT22;21870;42.812;74.628;2022-11-14T00:02:59;5.10;99.90
35746;DHT22;21870;42.812;74.628;2022-11-14T00:05:25;5.10;99.90
35746;DHT22;21870;42.812;74.628;2022-11-14T00:07:52;5.20;99.90
35746;DHT22;21870;42.812;74.628;2022-11-14T00:10:18;5.20;99.90
35746;DHT22;21870;42.812;74.628;2022-11-14T00:12:44;5.00;99.90
35746;DHT22;21870;42.812;74.628;2022-11-14T00:15:11;4.90;99.90
35746;DHT22;21870;42.812;74.628;2022-11-14T00:17:37;4.80;99.90
35746;DHT22;21870;42.812;74.628;2022-11-14T00:20:05;4.80;99.90
35746;DHT22;21870;42.812;74.628;2022-11-14T00:22:31;4.70;99.90
35746;DHT22;21870;42.812;74.628;2022-11-14T00:24:58;4.70;99.90
35746;DHT22;21870;42.812;74.628;2022-11-14T00:27:24;4.80;99.90
35746;DHT22;21870;42.812;74.628;2022-11-14T00:29:50;4.80;99.90
35746;DHT22;21870;42.812;74.628;2022-11-14T00:32:16;4.90;99.90
35746;DHT22;21870;42.812;74.628;2022-11-14T00:34:43;4.80;99.90
35746;DHT22;21870;42.812;74.628;2022-11-14T00:37:09;4.80;99.90
35746;DHT22;21870;42.812;74.628;2022-11-14T00:39:35;4.50;99.90
35746;DHT22;21870;42.812;74.628;2022-11-14T00:42:01;4.40;99.90
35746;DHT22;21870;42.812;74.628;2022-11-14T00:44:27;4.30;99.90
35746;DHT22;21870;42.812;74.628;2022-11-14T00:46:53;4.40;99.90
35746;DHT22;21870;42.812;74.628;2022-11-14T00:49:19;4.30;99.90
35746;DHT22;21870;42.812;74.628;2022-11-14T00:51:45;4.10;99.90
35746;DHT22;21870;42.812;74.628;2022-11-14T00:54:11;4.00;99.90
35746;DHT22;21870;42.812;74.628;2022-11-14T00:56:37;4.00;99.90
35746;DHT22;21870;42.812;74.628;2022-11-14T00:59:03;4.00;99.90
35746;DHT22;21870;42.812;74.628;2022-11-14T01:01:29;4.00;99.90
35746;DHT22;21870;42.812;74.628;2022-11-14T01:03:55;4.10;99.90
35746;DHT22;21870;42.812;74.628;2022-11-14T01:06:21;4.20;99.90
35746;DHT22;21870;42.812;74.628;2022-11-14T01:08:50;4.20;99.90
35746;DHT22;21870;42.812;74.628;2022-11-14T01:11:18;4.20;99.90
35746;DHT22;21870;42.812;74.628;2022-11-14T01:13:45;4.20;99.90
35746;DHT22;21870;42.812;74.628;2022-11-14T01:16:11;4.10;99.90
35746;DHT22;21870;42.812;74.628;2022-11-14T01:18:38;4.10;99.90
35746;DHT22;21870;42.812;74.628;2022-11-14T01:21:06;4.10;99.90
35746;DHT22;21870;42.812;74.628;2022-11-14T01:23:33;4.00;99.90
35746;DHT22;21870;42.812;74.628;2022-11-14T01:26:05;4.00;99.90
35746;DHT22;21870;42.812;74.628;2022-11-14T01:28:32;3.90;99.90
35746;DHT22;21870;42.812;74.628;2022-11-14T01:31:19;3.80;99.90
35746;DHT22;21870;42.812;74.628;2022-11-14T01:33:48;3.70;99.90
35746;DHT22;21870;42.812;74.628;2022-11-14T01:36:15;3.70;99.90
35746;DHT22;21870;42.812;74.628;2022-11-14T01:38:41;3.60;99.90
35746;DHT22;21870;42.812;74.628;2022-11-14T01:41:10;3.60;99.90
35746;DHT22;21870;42.812;74.628;2022-11-14T01:43:38;3.60;99.90
35746;DHT22;21870;42.812;74.628;2022-11-14T01:46:07;3.70;99.90
35746;DHT22;21870;42.812;74.628;2022-11-14T01:48:41;3.70;99.90
35746;DHT22;21870;42.812;74.628;2022-11-14T01:54:11;3.70;99.90
35746;DHT22;21870;42.812;74.628;2022-11-14T01:56:58;3.70;99.90
35746;DHT22;21870;42.812;74.628;2022-11-14T01:59:28;3.80;99.90
35746;DHT22;21870;42.812;74.628;2022-11-14T02:01:56;3.70;99.90
35746;DHT22;21870;42.812;74.628;2022-11-14T02:04:30;3.80;99.90
35746;DHT22;21870;42.812;74.628;2022-11-14T02:07:00;3.80;99.90
35746;DHT22;21870;42.812;74.628;2022-11-14T02:09:31;3.90;99.90
35746;DHT22;21870;42.812;74.628;2022-11-14T02:11:58;3.90;99.90
35746;DHT22;21870;42.812;74.628;2022-11-14T02:14:27;4.00;99.90
35746;DHT22;21870;42.812;74.628;2022-11-14T02:16:54;4.10;99.90
35746;DHT22;21870;42.812;74.628;2022-11-14T02:19:20;4.30;99.90
35746;DHT22;21870;42.812;74.628;2022-11-14T02:21:46;4.50;99.90
35746;DHT22;21870;42.812;74.628;2022-11-14T02:24:15;4.60;99.90
35746;DHT22;21870;42.812;74.628;2022-11-14T02:26:42;4.70;99.90
35746;DHT22;21870;42.812;74.628;2022-11-14T02:29:10;4.70;99.90
35746;DHT22;21870;42.812;74.628;2022-11-14T02:31:36;4.80;99.90
35746;DHT22;21870;42.812;74.628;2022-11-14T02:34:02;4.90;99.90
35746;DHT22;21870;42.812;74.628;2022-11-14T02:36:28;5.00;99.90
35746;DHT22;21870;42.812;74.628;2022-11-14T02:38:54;5.10;99.90
35746;DHT22;21870;42.812;74.628;2022-11-14T02:41:20;5.20;99.90
35746;DHT22;21870;42.812;74.628;2022-11-14T02:43:46;5.30;99.90
35746;DHT22;21870;42.812;74.628;2022-11-14T02:46:12;5.40;99.90
35746;DHT22;21870;42.812;74.628;2022-11-14T02:48:38;5.60;99.90
35746;DHT22;21870;42.812;74.628;2022-11-14T02:51:04;5.60;99.90
35746;DHT22;21870;42.812;74.628;2022-11-14T02:53:30;5.80;99.90
35746;DHT22;21870;42.812;74.628;2022-11-14T02:55:56;5.80;99.90
35746;DHT22;21870;42.812;74.628;2022-11-14T02:58:23;5.90;99.90
35746;DHT22;21870;42.812;74.628;2022-11-14T03:00:49;6.00;99.90
35746;DHT22;21870;42.812;74.628;2022-11-14T03:03:15;6.10;99.90
35746;DHT22;21870;42.812;74.628;2022-11-14T03:05:41;6.30;99.90
35746;DHT22;21870;42.812;74.628;2022-11-14T03:08:07;6.50;99.90
35746;DHT22;21870;42.812;74.628;2022-11-14T03:10:33;6.70;99.90
35746;DHT22;21870;42.812;74.628;2022-11-14T03:12:59;6.80;99.90
35746;DHT22;21870;42.812;74.628;2022-11-14T03:15:25;6.90;99.90
35746;DHT22;21870;42.812;74.628;2022-11-14T03:17:51;7.00;99.90
35746;DHT22;21870;42.812;74.628;2022-11-14T03:20:17;7.30;99.90
35746;DHT22;21870;42.812;74.628;2022-11-14T03:22:43;7.50;99.90
35746;DHT22;21870;42.812;74.628;2022-11-14T03:25:09;7.60;99.90
35746;DHT22;21870;42.812;74.628;2022-11-14T03:27:36;7.60;99.90
35746;DHT22;21870;42.812;74.628;2022-11-14T03:30:02;7.70;99.90
35746;DHT22;21870;42.812;74.628;2022-11-14T03:32:28;8.00;99.90
35746;DHT22;21870;42.812;74.628;2022-11-14T03:34:54;8.20;99.90
35746;DHT22;21870;42.812;74.628;2022-11-14T03:37:20;8.50;99.90
35746;DHT22;21870;42.812;74.628;2022-11-14T03:39:46;8.70;99.90
35746;DHT22;21870;42.812;74.628;2022-11-14T03:42:12;8.90;99.90
35746;DHT22;21870;42.812;74.628;2022-11-14T03:44:38;9.10;99.90
35746;DHT22;21870;42.812;74.628;2022-11-14T03:47:04;9.40;99.90
35746;DHT22;21870;42.812;74.628;2022-11-14T03:49:30;9.60;99.90
35746;DHT22;21870;42.812;74.628;2022-11-14T03:51:56;9.90;99.90
35746;DHT22;21870;42.812;74.628;2022-11-14T03:54:23;10.00;99.90
35746;DHT22;21870;42.812;74.628;2022-11-14T03:56:49;10.30;99.90
35746;DHT22;21870;42.812;74.628;2022-11-14T03:59:15;10.50;99.90
35746;DHT22;21870;42.812;74.628;2022-11-14T04:01:41;10.60;99.90
35746;DHT22;21870;42.812;74.628;2022-11-14T04:04:07;10.70;99.90
35746;DHT22;21870;42.812;74.628;2022-11-14T04:06:33;11.00;99.90
35746;DHT22;21870;42.812;74.628;2022-11-14T04:08:59;11.30;99.90
35746;DHT22;21870;42.812;74.628;2022-11-14T04:11:25;11.50;99.90
35746;DHT22;21870;42.812;74.628;2022-11-14T04:13:51;11.70;99.90
35746;DHT22;21870;42.812;74.628;2022-11-14T04:16:18;11.80;99.80
35746;DHT22;21870;42.812;74.628;2022-11-14T04:18:44;11.90;99.80
35746;DHT22;21870;42.812;74.628;2022-11-14T04:21:10;12.10;99.10
35746;DHT22;21870;42.812;74.628;2022-11-14T04:23:36;12.30;99.00
35746;DHT22;21870;42.812;74.628;2022-11-14T04:26:02;12.60;99.60
35746;DHT22;21870;42.812;74.628;2022-11-14T04:28:28;12.90;98.40
35746;DHT22;21870;42.812;74.628;2022-11-14T04:30:54;13.00;98.20
35746;DHT22;21870;42.812;74.628;2022-11-14T04:33:20;13.20;97.20
35746;DHT22;21870;42.812;74.628;2022-11-14T04:35:47;13.20;95.90
35746;DHT22;21870;42.812;74.628;2022-11-14T04:38:13;13.40;95.50
35746;DHT22;21870;42.812;74.628;2022-11-14T04:40:39;13.40;96.00
35746;DHT22;21870;42.812;74.628;2022-11-14T04:43:05;13.60;95.90
35746;DHT22;21870;42.812;74.628;2022-11-14T04:45:31;13.70;94.30
35746;DHT22;21870;42.812;74.628;2022-11-14T04:47:57;13.80;94.70
35746;DHT22;21870;42.812;74.628;2022-11-14T04:50:23;13.80;94.40
35746;DHT22;21870;42.812;74.628;2022-11-14T04:52:53;13.80;94.60
35746;DHT22;21870;42.812;74.628;2022-11-14T04:55:19;13.80;95.20
35746;DHT22;21870;42.812;74.628;2022-11-14T04:57:45;14.00;95.40
35746;DHT22;21870;42.812;74.628;2022-11-14T05:00:11;14.10;94.80
35746;DHT22;21870;42.812;74.628;2022-11-14T05:02:38;14.10;94.10
35746;DHT22;21870;42.812;74.628;2022-11-14T05:05:04;14.50;94.20
35746;DHT22;21870;42.812;74.628;2022-11-14T05:07:30;14.70;93.80
35746;DHT22;21870;42.812;74.628;2022-11-14T05:09:56;14.80;93.00
35746;DHT22;21870;42.812;74.628;2022-11-14T05:12:22;14.80;92.80
35746;DHT22;21870;42.812;74.628;2022-11-14T05:14:48;14.80;92.80
35746;DHT22;21870;42.812;74.628;2022-11-14T05:17:14;14.90;92.70
35746;DHT22;21870;42.812;74.628;2022-11-14T05:19:40;15.00;92.80
35746;DHT22;21870;42.812;74.628;2022-11-14T05:22:06;15.20;93.00
35746;DHT22;21870;42.812;74.628;2022-11-14T05:24:32;15.30;92.90
35746;DHT22;21870;42.812;74.628;2022-11-14T05:26:59;15.30;92.40
35746;DHT22;21870;42.812;74.628;2022-11-14T05:29:25;15.40;92.80
35746;DHT22;21870;42.812;74.628;2022-11-14T05:31:51;15.50;93.00
35746;DHT22;21870;42.812;74.628;2022-11-14T05:34:17;15.70;93.00
35746;DHT22;21870;42.812;74.628;2022-11-14T05:36:43;15.80;93.10
35746;DHT22;21870;42.812;74.628;2022-11-14T05:39:09;15.80;92.40
35746;DHT22;21870;42.812;74.628;2022-11-14T05:41:35;16.00;92.40
35746;DHT22;21870;42.812;74.628;2022-11-14T05:44:03;16.00;92.60
35746;DHT22;21870;42.812;74.628;2022-11-14T05:46:29;16.10;92.40
35746;DHT22;21870;42.812;74.628;2022-11-14T05:48:55;16.10;92.20
35746;DHT22;21870;42.812;74.628;2022-11-14T05:51:21;16.20;92.40
35746;DHT22;21870;42.812;74.628;2022-11-14T05:53:47;16.30;92.20
35746;DHT22;21870;42.812;74.628;2022-11-14T05:56:14;16.60;92.30
35746;DHT22;21870;42.812;74.628;2022-11-14T05:58:40;16.60;91.70
35746;DHT22;21870;42.812;74.628;2022-11-14T06:01:15;16.80;91.70
35746;DHT22;21870;42.812;74.628;2022-11-14T06:03:46;16.90;90.90
35746;DHT22;21870;42.812;74.628;2022-11-14T06:06:16;16.80;90.50
35746;DHT22;21870;42.812;74.628;2022-11-14T06:08:42;17.00;90.50
35746;DHT22;21870;42.812;74.628;2022-11-14T06:11:11;17.00;90.40
35746;DHT22;21870;42.812;74.628;2022-11-14T06:13:38;17.00;90.50
35746;DHT22;21870;42.812;74.628;2022-11-14T06:16:06;17.10;90.50
35746;DHT22;21870;42.812;74.628;2022-11-14T06:18:33;17.20;90.30
35746;DHT22;21870;42.812;74.628;2022-11-14T06:21:00;17.30;90.90
35746;DHT22;21870;42.812;74.628;2022-11-14T06:23:27;17.60;90.40
35746;DHT22;21870;42.812;74.628;2022-11-14T06:26:05;17.50;89.70
35746;DHT22;21870;42.812;74.628;2022-11-14T06:28:32;17.60;89.60
35746;DHT22;21870;42.812;74.628;2022-11-14T06:30:59;17.60;90.00
35746;DHT22;21870;42.812;74.628;2022-11-14T06:33:32;17.70;90.30
35746;DHT22;21870;42.812;74.628;2022-11-14T06:36:01;17.90;90.70
35746;DHT22;21870;42.812;74.628;2022-11-14T06:38:29;18.00;89.70
35746;DHT22;21870;42.812;74.628;2022-11-14T06:41:14;17.90;89.80
35746;DHT22;21870;42.812;74.628;2022-11-14T06:43:45;18.00;90.40
35746;DHT22;21870;42.812;74.628;2022-11-14T06:46:14;17.80;90.00
35746;DHT22;21870;42.812;74.628;2022-11-14T06:48:41;17.90;90.30
35746;DHT22;21870;42.812;74.628;2022-11-14T06:51:09;17.90;90.70
35746;DHT22;21870;42.812;74.628;2022-11-14T06:53:36;17.80;90.10
35746;DHT22;21870;42.812;74.628;2022-11-14T06:56:05;17.90;90.60
35746;DHT22;21870;42.812;74.628;2022-11-14T06:58:40;18.00;90.70
35746;DHT22;21870;42.812;74.628;2022-11-14T07:01:27;18.00;90.50
35746;DHT22;21870;42.812;74.628;2022-11-14T07:03:53;18.20;90.70
35746;DHT22;21870;42.812;74.628;2022-11-14T07:06:24;18.50;90.40
35746;DHT22;21870;42.812;74.628;2022-11-14T07:08:51;18.60;91.10
35746;DHT22;21870;42.812;74.628;2022-11-14T07:11:20;18.70;90.50
35746;DHT22;21870;42.812;74.628;2022-11-14T07:13:55;18.80;90.20
35746;DHT22;21870;42.812;74.628;2022-11-14T07:16:33;19.10;90.30
35746;DHT22;21870;42.812;74.628;2022-11-14T07:19:04;19.40;90.90
35746;DHT22;21870;42.812;74.628;2022-11-14T07:21:31;19.40;89.60
35746;DHT22;21870;42.812;74.628;2022-11-14T07:23:58;19.60;87.10
35746;DHT22;21870;42.812;74.628;2022-11-14T07:26:24;19.80;88.30
35746;DHT22;21870;42.812;74.628;2022-11-14T07:28:50;20.00;88.90
35746;DHT22;21870;42.812;74.628;2022-11-14T07:31:18;20.30;88.20
35746;DHT22;21870;42.812;74.628;2022-11-14T07:33:45;20.50;87.90
35746;DHT22;21870;42.812;74.628;2022-11-14T07:36:13;20.60;88.30
35746;DHT22;21870;42.812;74.628;2022-11-14T07:38:40;20.70;87.70
35746;DHT22;21870;42.812;74.628;2022-11-14T07:41:13;20.70;85.40
35746;DHT22;21870;42.812;74.628;2022-11-14T07:43:40;20.50;83.90
35746;DHT22;21870;42.812;74.628;2022-11-14T07:46:09;20.20;83.20
35746;DHT22;21870;42.812;74.628;2022-11-14T07:48:36;19.90;83.10
35746;DHT22;21870;42.812;74.628;2022-11-14T07:51:04;19.80;84.20
35746;DHT22;21870;42.812;74.628;2022-11-14T07:53:31;19.80;83.20
35746;DHT22;21870;42.812;74.628;2022-11-14T07:56:04;19.70;85.40
35746;DHT22;21870;42.812;74.628;2022-11-14T07:58:30;19.70;85.40
35746;DHT22;21870;42.812;74.628;2022-11-14T08:01:00;19.40;85.40
35746;DHT22;21870;42.812;74.628;2022-11-14T08:03:27;19.30;87.00
35746;DHT22;21870;42.812;74.628;2022-11-14T08:06:08;19.20;89.30
35746;DHT22;21870;42.812;74.628;2022-11-14T08:08:35;18.80;86.50
35746;DHT22;21870;42.812;74.628;2022-11-14T08:11:02;18.60;87.70
35746;DHT22;21870;42.812;74.628;2022-11-14T08:13:28;18.50;87.10
35746;DHT22;21870;42.812;74.628;2022-11-14T08:16:02;18.70;85.90
35746;DHT22;21870;42.812;74.628;2022-11-14T08:18:28;18.80;87.80
35746;DHT22;21870;42.812;74.628;2022-11-14T08:20:54;18.80;88.50
35746;DHT22;21870;42.812;74.628;2022-11-14T08:23:22;18.70;86.90
35746;DHT22;21870;42.812;74.628;2022-11-14T08:25:48;18.30;89.10
35746;DHT22;21870;42.812;74.628;2022-11-14T08:28:14;17.90;90.20
35746;DHT22;21870;42.812;74.628;2022-11-14T08:30:40;17.70;90.70
35746;DHT22;21870;42.812;74.628;2022-11-14T08:33:07;17.40;91.00
35746;DHT22;21870;42.812;74.628;2022-11-14T08:35:33;17.10;90.40
35746;DHT22;21870;42.812;74.628;2022-11-14T08:38:02;16.60;89.90
35746;DHT22;21870;42.812;74.628;2022-11-14T08:40:29;16.20;90.70
35746;DHT22;21870;42.812;74.628;2022-11-14T08:43:01;15.90;92.40
35746;DHT22;21870;42.812;74.628;2022-11-14T08:45:28;15.60;93.60
35746;DHT22;21870;42.812;74.628;2022-11-14T08:47:54;15.20;94.30
35746;DHT22;21870;42.812;74.628;2022-11-14T08:50:21;14.90;95.10
35746;DHT22;21870;42.812;74.628;2022-11-14T08:52:50;14.50;96.90
35746;DHT22;21870;42.812;74.628;2022-11-14T08:55:19;14.20;99.90
35746;DHT22;21870;42.812;74.628;2022-11-14T08:57:45;13.90;99.90
35746;DHT22;21870;42.812;74.628;2022-11-14T09:00:12;13.60;99.90
35746;DHT22;21870;42.812;74.628;2022-11-14T09:02:38;13.30;99.90
35746;DHT22;21870;42.812;74.628;2022-11-14T09:05:05;12.90;99.90
35746;DHT22;21870;42.812;74.628;2022-11-14T09:07:31;12.60;99.90
35746;DHT22;21870;42.812;74.628;2022-11-14T09:09:57;12.40;99.90
35746;DHT22;21870;42.812;74.628;2022-11-14T09:12:23;12.20;99.90
35746;DHT22;21870;42.812;74.628;2022-11-14T09:14:49;12.10;99.90
35746;DHT22;21870;42.812;74.628;2022-11-14T09:17:15;12.00;99.90
35746;DHT22;21870;42.812;74.628;2022-11-14T09:19:41;11.80;99.90
35746;DHT22;21870;42.812;74.628;2022-11-14T09:22:07;11.70;99.90
35746;DHT22;21870;42.812;74.628;2022-11-14T09:24:33;11.60;99.90
35746;DHT22;21870;42.812;74.628;2022-11-14T09:26:59;11.40;99.90
35746;DHT22;21870;42.812;74.628;2022-11-14T09:29:25;11.30;99.90
35746;DHT22;21870;42.812;74.628;2022-11-14T09:31:51;11.00;99.90
35746;DHT22;21870;42.812;74.628;2022-11-14T09:34:19;11.00;99.90
35746;DHT22;21870;42.812;74.628;2022-11-14T09:36:45;11.00;99.90
35746;DHT22;21870;42.812;74.628;2022-11-14T09:39:12;11.00;99.90
35746;DHT22;21870;42.812;74.628;2022-11-14T09:44:56;10.70;99.90
35746;DHT22;21870;42.812;74.628;2022-11-14T09:47:43;10.40;99.90
35746;DHT22;21870;42.812;74.628;2022-11-14T09:50:33;10.30;99.90
35746;DHT22;21870;42.812;74.628;2022-11-14T09:53:09;10.20;99.90
35746;DHT22;21870;42.812;74.628;2022-11-14T09:55:38;10.00;99.90
35746;DHT22;21870;42.812;74.628;2022-11-14T09:58:14;10.00;99.90
35746;DHT22;21870;42.812;74.628;2022-11-14T10:01:54;9.90;99.90
35746;DHT22;21870;42.812;74.628;2022-11-14T10:04:02;9.80;99.90
35746;DHT22;21870;42.812;74.628;2022-11-14T10:12:29;9.80;99.90
35746;DHT22;21870;42.812;74.628;2022-11-14T10:15:25;9.70;99.90
35746;DHT22;21870;42.812;74.628;2022-11-14T10:18:27;9.60;99.90
35746;DHT22;21870;42.812;74.628;2022-11-14T10:21:26;9.60;99.90
35746;DHT22;21870;42.812;74.628;2022-11-14T10:24:30;9.60;99.90
35746;DHT22;21870;42.812;74.628;2022-11-14T10:27:03;9.50;99.90
35746;DHT22;21870;42.812;74.628;2022-11-14T10:29:37;9.40;99.90
35746;DHT22;21870;42.812;74.628;2022-11-14T10:37:45;9.10;99.90
35746;DHT22;21870;42.812;74.628;2022-11-14T10:40:36;9.10;99.90
35746;DHT22;21870;42.812;74.628;2022-11-14T10:46:02;9.30;99.90
35746;DHT22;21870;42.812;74.628;2022-11-14T10:48:39;9.20;99.90
35746;DHT22;21870;42.812;74.628;2022-11-14T10:56:28;9.20;99.90
35746;DHT22;21870;42.812;74.628;2022-11-14T10:58:54;9.10;99.90
35746;DHT22;21870;42.812;74.628;2022-11-14T11:01:57;9.10;99.90
35746;DHT22;21870;42.812;74.628;2022-11-14T11:07:42;9.00;99.90
35746;DHT22;21870;42.812;74.628;2022-11-14T11:10:20;9.00;99.90
35746;DHT22;21870;42.812;74.628;2022-11-14T11:13:04;9.00;99.90
35746;DHT22;21870;42.812;74.628;2022-11-14T11:15:38;9.00;99.90
35746;DHT22;21870;42.812;74.628;2022-11-14T11:21:02;9.10;99.90
35746;DHT22;21870;42.812;74.628;2022-11-14T11:23:28;9.10;99.90
35746;DHT22;21870;42.812;74.628;2022-11-14T11:28:31;9.20;99.90
35746;DHT22;21870;42.812;74.628;2022-11-14T11:31:04;9.30;99.90
35746;DHT22;21870;42.812;74.628;2022-11-14T11:33:32;9.30;99.90
35746;DHT22;21870;42.812;74.628;2022-11-14T11:36:03;9.30;99.90
35746;DHT22;21870;42.812;74.628;2022-11-14T11:38:31;9.30;99.90
35746;DHT22;21870;42.812;74.628;2022-11-14T11:41:26;9.20;99.90
35746;DHT22;21870;42.812;74.628;2022-11-14T11:43:57;9.30;99.90
35746;DHT22;21870;42.812;74.628;2022-11-14T11:47:02;9.30;99.90
35746;DHT22;21870;42.812;74.628;2022-11-14T11:51:55;9.20;99.90
35746;DHT22;21870;42.812;74.628;2022-11-14T11:54:32;9.40;99.90
35746;DHT22;21870;42.812;74.628;2022-11-14T11:57:04;9.30;99.90
35746;DHT22;21870;42.812;74.628;2022-11-14T11:59:39;9.10;99.90
35746;DHT22;21870;42.812;74.628;2022-11-14T12:02:23;9.10;99.90
35746;DHT22;21870;42.812;74.628;2022-11-14T12:04:51;9.00;99.90
35746;DHT22;21870;42.812;74.628;2022-11-14T12:07:54;9.00;99.90
35746;DHT22;21870;42.812;74.628;2022-11-14T12:10:27;9.00;99.90
35746;DHT22;21870;42.812;74.628;2022-11-14T12:13:19;8.80;99.90
35746;DHT22;21870;42.812;74.628;2022-11-14T12:32:53;8.30;99.90
35746;DHT22;21870;42.812;74.628;2022-11-14T12:35:24;8.40;99.90
35746;DHT22;21870;42.812;74.628;2022-11-14T12:37:53;8.40;99.90
35746;DHT22;21870;42.812;74.628;2022-11-14T12:40:34;8.30;99.90
35746;DHT22;21870;42.812;74.628;2022-11-14T12:43:02;8.20;99.90
35746;DHT22;21870;42.812;74.628;2022-11-14T12:50:51;8.00;99.90
35746;DHT22;21870;42.812;74.628;2022-11-14T13:12:29;8.10;99.90
35746;DHT22;21870;42.812;74.628;2022-11-14T13:18:23;8.10;99.90
35746;DHT22;21870;42.812;74.628;2022-11-14T13:21:24;8.10;99.90
35746;DHT22;21870;42.812;74.628;2022-11-14T13:24:10;8.10;99.90
35746;DHT22;21870;42.812;74.628;2022-11-14T13:26:41;8.20;99.90
35746;DHT22;21870;42.812;74.628;2022-11-14T13:29:08;8.10;99.90
35746;DHT22;21870;42.812;74.628;2022-11-14T13:31:53;8.10;99.90
35746;DHT22;21870;42.812;74.628;2022-11-14T13:34:58;8.20;99.90
35746;DHT22;21870;42.812;74.628;2022-11-14T13:40:07;8.20;99.90
35746;DHT22;21870;42.812;74.628;2022-11-14T13:42:48;8.20;99.90
35746;DHT22;21870;42.812;74.628;2022-11-14T13:48:35;8.10;99.90
35746;DHT22;21870;42.812;74.628;2022-11-14T13:51:10;8.10;99.90
35746;DHT22;21870;42.812;74.628;2022-11-14T13:53:38;8.20;99.90
35746;DHT22;21870;42.812;74.628;2022-11-14T13:56:33;8.20;99.90
35746;DHT22;21870;42.812;74.628;2022-11-14T13:59:22;8.30;99.90
35746;DHT22;21870;42.812;74.628;2022-11-14T14:16:17;8.70;99.90
35746;DHT22;21870;42.812;74.628;2022-11-14T14:19:33;8.80;99.90
35746;DHT22;21870;42.812;74.628;2022-11-14T14:22:07;8.70;99.90
35746;DHT22;21870;42.812;74.628;2022-11-14T14:30:28;8.80;99.90
35746;DHT22;21870;42.812;74.628;2022-11-14T14:35:34;8.90;99.90
35746;DHT22;21870;42.812;74.628;2022-11-14T14:38:02;8.90;99.90
35746;DHT22;21870;42.812;74.628;2022-11-14T14:40:31;8.90;99.90
35746;DHT22;21870;42.812;74.628;2022-11-14T14:43:04;9.00;99.90
35746;DHT22;21870;42.812;74.628;2022-11-14T14:45:55;9.00;99.90
35746;DHT22;21870;42.812;74.628;2022-11-14T14:48:26;9.10;99.90
35746;DHT22;21870;42.812;74.628;2022-11-14T14:50:55;9.10;99.90
35746;DHT22;21870;42.812;74.628;2022-11-14T14:53:34;9.10;99.90
35746;DHT22;21870;42.812;74.628;2022-11-14T14:56:13;9.20;99.90
35746;DHT22;21870;42.812;74.628;2022-11-14T14:58:45;9.20;99.90
35746;DHT22;21870;42.812;74.628;2022-11-14T15:01:17;9.40;99.90
35746;DHT22;21870;42.812;74.628;2022-11-14T15:04:00;9.40;99.90
35746;DHT22;21870;42.812;74.628;2022-11-14T15:06:35;9.40;99.90
35746;DHT22;21870;42.812;74.628;2022-11-14T15:09:20;9.40;99.90
35746;DHT22;21870;42.812;74.628;2022-11-14T15:11:49;9.40;99.90
35746;DHT22;21870;42.812;74.628;2022-11-14T15:14:24;9.30;99.90
35746;DHT22;21870;42.812;74.628;2022-11-14T15:16:52;9.40;99.90
35746;DHT22;21870;42.812;74.628;2022-11-14T15:19:23;9.20;99.90
35746;DHT22;21870;42.812;74.628;2022-11-14T15:22:22;9.00;99.90
35746;DHT22;21870;42.812;74.628;2022-11-14T15:25:24;9.10;99.90
35746;DHT22;21870;42.812;74.628;2022-11-14T15:27:54;9.00;99.90
35746;DHT22;21870;42.812;74.628;2022-11-14T15:30:41;9.00;99.90
35746;DHT22;21870;42.812;74.628;2022-11-14T15:33:31;9.00;99.90
35746;DHT22;21870;42.812;74.628;2022-11-14T15:36:10;9.10;99.90
35746;DHT22;21870;42.812;74.628;2022-11-14T15:38:37;9.10;99.90
35746;DHT22;21870;42.812;74.628;2022-11-14T15:41:19;9.10;99.90
35746;DHT22;21870;42.812;74.628;2022-11-14T15:43:52;9.00;99.90
35746;DHT22;21870;42.812;74.628;2022-11-14T15:49:25;9.10;99.90
35746;DHT22;21870;42.812;74.628;2022-11-14T15:51:59;9.10;99.90
35746;DHT22;21870;42.812;74.628;2022-11-14T15:54:31;9.20;99.90
35746;DHT22;21870;42.812;74.628;2022-11-14T15:56:59;9.20;99.90
35746;DHT22;21870;42.812;74.628;2022-11-14T15:59:28;9.20;99.90
35746;DHT22;21870;42.812;74.628;2022-11-14T16:02:03;9.10;99.90
35746;DHT22;21870;42.812;74.628;2022-11-14T16:04:35;9.00;99.90
35746;DHT22;21870;42.812;74.628;2022-11-14T16:07:02;8.90;99.90
35746;DHT22;21870;42.812;74.628;2022-11-14T16:09:28;8.80;99.90
35746;DHT22;21870;42.812;74.628;2022-11-14T16:11:54;8.80;99.90
35746;DHT22;21870;42.812;74.628;2022-11-14T16:14:20;8.70;99.90
35746;DHT22;21870;42.812;74.628;2022-11-14T16:16:46;8.80;99.90
35746;DHT22;21870;42.812;74.628;2022-11-14T16:19:14;8.80;99.90
35746;DHT22;21870;42.812;74.628;2022-11-14T16:21:41;8.70;99.90
35746;DHT22;21870;42.812;74.628;2022-11-14T16:24:19;8.60;99.90
35746;DHT22;21870;42.812;74.628;2022-11-14T16:26:45;8.40;99.90
35746;DHT22;21870;42.812;74.628;2022-11-14T16:29:12;8.30;99.90
35746;DHT22;21870;42.812;74.628;2022-11-14T16:31:38;8.30;99.90
35746;DHT22;21870;42.812;74.628;2022-11-14T16:34:05;8.30;99.90
35746;DHT22;21870;42.812;74.628;2022-11-14T16:36:31;8.20;99.90
35746;DHT22;21870;42.812;74.628;2022-11-14T16:39:02;8.00;99.90
35746;DHT22;21870;42.812;74.628;2022-11-14T16:41:28;8.10;99.90
35746;DHT22;21870;42.812;74.628;2022-11-14T16:43:55;8.10;99.90
35746;DHT22;21870;42.812;74.628;2022-11-14T16:46:22;8.10;99.90
35746;DHT22;21870;42.812;74.628;2022-11-14T16:48:49;8.10;99.90
35746;DHT22;21870;42.812;74.628;2022-11-14T16:51:15;8.20;99.90
35746;DHT22;21870;42.812;74.628;2022-11-14T16:53:41;8.00;99.90
35746;DHT22;21870;42.812;74.628;2022-11-14T16:56:10;8.00;99.90
35746;DHT22;21870;42.812;74.628;2022-11-14T16:58:37;7.90;99.90
35746;DHT22;21870;42.812;74.628;2022-11-14T17:01:06;8.00;99.90
35746;DHT22;21870;42.812;74.628;2022-11-14T17:03:33;8.10;99.90
35746;DHT22;21870;42.812;74.628;2022-11-14T17:05:59;7.80;99.90
35746;DHT22;21870;42.812;74.628;2022-11-14T17:08:25;7.70;99.90
35746;DHT22;21870;42.812;74.628;2022-11-14T17:10:51;7.80;99.90
35746;DHT22;21870;42.812;74.628;2022-11-14T17:13:17;7.80;99.90
35746;DHT22;21870;42.812;74.628;2022-11-14T17:15:43;7.80;99.90
35746;DHT22;21870;42.812;74.628;2022-11-14T17:18:09;7.80;99.90
35746;DHT22;21870;42.812;74.628;2022-11-14T17:20:36;7.80;99.90
35746;DHT22;21870;42.812;74.628;2022-11-14T17:23:03;7.70;99.90
35746;DHT22;21870;42.812;74.628;2022-11-14T17:25:29;7.70;99.90
35746;DHT22;21870;42.812;74.628;2022-11-14T17:27:56;7.50;99.90
35746;DHT22;21870;42.812;74.628;2022-11-14T17:30:22;7.40;99.90
35746;DHT22;21870;42.812;74.628;2022-11-14T17:32:48;7.40;99.90
35746;DHT22;21870;42.812;74.628;2022-11-14T17:35:14;7.30;99.90
35746;DHT22;21870;42.812;74.628;2022-11-14T17:37:40;7.30;99.90